createdAt,value
2019-06-26T00:02:00.784Z,100784.38
2019-06-26T00:04:51.227Z,100790.34
2019-06-26T00:07:41.691Z,100795.77
2019-06-26T00:10:30.799Z,100793.97
2019-06-26T00:13:26.074Z,100795.73
2019-06-26T00:16:12.384Z,100802.25
2019-06-26T00:19:02.003Z,100806.81
2019-06-26T00:21:52.074Z,100808.59
2019-06-26T00:24:42.471Z,100809.86
2019-06-26T00:27:32.606Z,100809.78
2019-06-26T00:30:22.653Z,100812.69
2019-06-26T00:33:12.525Z,100812.76
2019-06-26T00:36:02.425Z,100810.06
2019-06-26T00:38:52.374Z,100810.72
2019-06-26T00:41:41.853Z,100810.79
2019-06-26T00:44:31.879Z,100808.91
2019-06-26T00:47:21.729Z,100813.70
2019-06-26T00:50:12.608Z,100815.97
2019-06-26T00:53:02.598Z,100815.55
2019-06-26T00:55:55.188Z,100817.00
2019-06-26T00:58:44.379Z,100818.78
2019-06-26T01:01:34.296Z,100820.43
2019-06-26T01:04:33.490Z,100814.39
2019-06-26T01:07:23.443Z,100813.41
2019-06-26T01:10:13.510Z,100818.19
2019-06-26T01:13:04.172Z,100817.13
2019-06-26T01:15:54.043Z,100814.17
2019-06-26T01:18:43.787Z,100813.73
2019-06-26T01:21:33.773Z,100820.22
2019-06-26T01:24:23.674Z,100814.09
2019-06-26T01:27:13.053Z,100815.59
2019-06-26T01:30:02.912Z,100821.81
2019-06-26T01:32:53.246Z,100821.91
2019-06-26T01:35:43.005Z,100821.38
2019-06-26T01:38:33.140Z,100823.65
2019-06-26T01:41:23.067Z,100822.03
2019-06-26T01:44:15.394Z,100825.42
2019-06-26T01:47:04.554Z,100818.89
2019-06-26T01:49:54.587Z,100821.16
2019-06-26T01:52:45.601Z,100819.56
2019-06-26T01:55:35.478Z,100815.21
2019-06-26T01:58:25.072Z,100826.27
2019-06-26T02:01:15.261Z,100823.01
2019-06-26T02:04:05.541Z,100825.02
2019-06-26T02:06:55.433Z,100816.21
2019-06-26T02:09:45.454Z,100818.48
2019-06-26T02:12:34.952Z,100815.77
2019-06-26T02:15:24.614Z,100814.95
2019-06-26T02:18:52.248Z,100819.16
2019-06-26T02:21:41.845Z,100815.06
2019-06-26T02:24:31.651Z,100819.09
2019-06-26T02:27:20.912Z,100817.50
2019-06-26T02:30:11.251Z,100812.11
2019-06-26T02:33:01.205Z,100815.99
2019-06-26T02:35:51.119Z,100818.25
2019-06-26T02:38:40.807Z,100817.43
2019-06-26T02:41:30.991Z,100824.16
2019-06-26T02:44:20.686Z,100820.89
2019-06-26T02:47:19.213Z,100825.89
2019-06-26T02:50:02.540Z,100824.33
2019-06-26T02:52:53.040Z,100824.65
2019-06-26T02:55:43.165Z,100821.94
2019-06-26T02:58:33.024Z,100823.37
2019-06-26T03:01:22.723Z,100830.57
2019-06-26T03:04:12.252Z,100817.63
2019-06-26T03:07:01.974Z,100820.16
2019-06-26T03:09:51.881Z,100819.15
2019-06-26T03:12:41.715Z,100825.52
2019-06-26T03:15:31.311Z,100825.29
2019-06-26T03:18:20.945Z,100824.98
2019-06-26T03:21:11.520Z,100821.98
2019-06-26T03:24:01.137Z,100821.98
2019-06-26T03:26:51.086Z,100829.45
2019-06-26T03:29:41.075Z,100825.87
2019-06-26T03:32:31.133Z,100827.02
2019-06-26T03:35:20.818Z,100823.74
2019-06-26T03:38:10.760Z,100822.59
2019-06-26T03:41:00.166Z,100823.16
2019-06-26T03:43:49.907Z,100829.77
2019-06-26T03:46:39.826Z,100829.50
2019-06-26T03:49:29.584Z,100826.42
2019-06-26T03:52:19.099Z,100823.92
2019-06-26T03:55:10.729Z,100830.49
2019-06-26T03:58:00.641Z,100833.77
2019-06-26T04:00:50.499Z,100824.86
2019-06-26T04:03:39.699Z,100836.10
2019-06-26T04:06:32.083Z,100829.14
2019-06-26T04:09:25.127Z,100835.44
2019-06-26T04:12:14.938Z,100829.30
2019-06-26T04:15:05.667Z,100832.51
2019-06-26T04:17:55.844Z,100838.99
2019-06-26T04:20:45.560Z,100848.73
2019-06-26T04:23:35.483Z,100845.86
2019-06-26T04:26:25.548Z,100840.72
2019-06-26T04:29:15.552Z,100839.45
2019-06-26T04:32:05.569Z,100840.48
2019-06-26T04:34:55.828Z,100845.84
2019-06-26T04:37:45.701Z,100844.84
2019-06-26T04:40:35.422Z,100843.28
2019-06-26T04:43:25.361Z,100838.06
2019-06-26T04:46:15.366Z,100845.59
2019-06-26T04:49:06.539Z,100835.95
2019-06-26T04:51:56.622Z,100837.63
2019-06-26T04:54:46.246Z,100842.36
2019-06-26T04:57:36.206Z,100841.53
2019-06-26T05:00:26.261Z,100843.70
2019-06-26T05:03:16.182Z,100846.69
2019-06-26T05:06:06.311Z,100843.24
2019-06-26T05:08:56.039Z,100848.06
2019-06-26T05:11:45.645Z,100847.66
2019-06-26T05:14:35.439Z,100848.57
2019-06-26T05:17:25.583Z,100847.37
2019-06-26T05:20:16.587Z,100839.38
2019-06-26T05:23:06.674Z,100842.27
2019-06-26T05:25:56.854Z,100842.18
2019-06-26T05:28:46.550Z,100844.85
2019-06-26T05:31:36.608Z,100845.43
2019-06-26T05:34:26.691Z,100849.41
2019-06-26T05:37:16.108Z,100841.69
2019-06-26T05:40:08.678Z,100846.95
2019-06-26T05:42:58.725Z,100850.59
2019-06-26T05:45:49.343Z,100846.11
2019-06-26T05:48:38.834Z,100847.52
2019-06-26T05:51:28.346Z,100852.74
2019-06-26T05:54:18.020Z,100857.27
2019-06-26T05:57:08.054Z,100861.55
2019-06-26T05:59:58.969Z,100866.89
2019-06-26T06:02:48.794Z,100867.08
2019-06-26T06:05:38.212Z,100860.87
2019-06-26T06:08:28.352Z,100862.51
2019-06-26T06:11:18.087Z,100860.11
2019-06-26T06:14:07.538Z,100867.26
2019-06-26T06:16:57.846Z,100870.66
2019-06-26T06:19:47.796Z,100861.42
2019-06-26T06:22:37.636Z,100865.72
2019-06-26T06:25:27.850Z,100866.20
2019-06-26T06:28:17.504Z,100871.55
2019-06-26T06:31:07.503Z,100871.32
2019-06-26T06:33:57.177Z,100868.86
2019-06-26T06:36:46.575Z,100869.87
2019-06-26T06:39:36.464Z,100873.36
2019-06-26T06:42:26.425Z,100871.91
2019-06-26T06:45:17.526Z,100873.14
2019-06-26T06:48:07.884Z,100875.31
2019-06-26T06:50:58.075Z,100872.58
2019-06-26T06:53:48.134Z,100881.20
2019-06-26T06:56:38.364Z,100875.98
2019-06-26T06:59:28.621Z,100878.38
2019-06-26T07:02:18.655Z,100880.56
2019-06-26T07:05:09.224Z,100879.55
2019-06-26T07:07:59.258Z,100880.28
2019-06-26T07:10:48.874Z,100882.95
2019-06-26T07:13:38.901Z,100879.38
2019-06-26T07:16:28.840Z,100882.92
2019-06-26T07:19:18.505Z,100882.81
2019-06-26T07:22:08.960Z,100885.91
2019-06-26T07:24:58.983Z,100885.53
2019-06-26T07:27:49.028Z,100891.94
2019-06-26T07:30:38.468Z,100886.77
2019-06-26T07:33:28.323Z,100890.17
2019-06-26T07:36:17.628Z,100883.92
2019-06-26T07:39:08.295Z,100888.93
2019-06-26T07:41:59.450Z,100887.00
2019-06-26T07:44:49.284Z,100894.84
2019-06-26T07:47:43.821Z,100893.94
2019-06-26T07:50:32.555Z,100885.89
2019-06-26T07:53:22.790Z,100890.90
2019-06-26T07:56:12.671Z,100890.30
2019-06-26T07:59:02.605Z,100888.07
2019-06-26T08:01:52.711Z,100887.84
2019-06-26T08:04:43.036Z,100890.83
2019-06-26T08:07:33.094Z,100892.24
2019-06-26T08:10:23.319Z,100894.04
2019-06-26T08:13:13.427Z,100898.44
2019-06-26T08:16:03.467Z,100898.69
2019-06-26T08:18:53.459Z,100895.02
2019-06-26T08:21:46.598Z,100897.13
2019-06-26T08:24:35.627Z,100891.64
2019-06-26T08:27:25.788Z,100892.36
2019-06-26T08:30:16.676Z,100895.09
2019-06-26T08:33:06.945Z,100891.91
2019-06-26T08:35:56.643Z,100892.62
2019-06-26T08:38:47.642Z,100888.66
2019-06-26T08:41:37.504Z,100893.36
2019-06-26T08:44:27.350Z,100892.88
2019-06-26T08:47:17.222Z,100891.19
2019-06-26T08:50:07.457Z,100893.42
2019-06-26T08:52:57.733Z,100892.41
2019-06-26T08:55:48.066Z,100898.27
2019-06-26T08:58:38.289Z,100894.63
2019-06-26T09:01:28.081Z,100899.31
2019-06-26T09:04:17.820Z,100896.90
2019-06-26T09:07:07.858Z,100893.45
2019-06-26T09:09:57.736Z,100892.61
2019-06-26T09:12:47.919Z,100891.94
2019-06-26T09:15:38.056Z,100891.64
2019-06-26T09:18:35.350Z,100896.42
2019-06-26T09:21:20.285Z,100891.11
2019-06-26T09:24:10.429Z,100884.84
2019-06-26T09:27:00.328Z,100885.41
2019-06-26T09:29:49.827Z,100890.04
2019-06-26T09:32:39.663Z,100884.52
2019-06-26T09:35:29.959Z,100895.42
2019-06-26T09:38:19.714Z,100890.71
2019-06-26T09:41:09.594Z,100891.52
2019-06-26T09:43:59.558Z,100883.41
2019-06-26T09:46:49.988Z,100886.23
2019-06-26T09:49:39.871Z,100881.56
2019-06-26T09:52:29.664Z,100879.70
2019-06-26T09:55:20.831Z,100882.04
2019-06-26T09:58:13.293Z,100885.56
2019-06-26T10:01:02.429Z,100882.98
2019-06-26T10:03:52.227Z,100880.59
2019-06-26T10:06:42.360Z,100885.33
2019-06-26T10:09:32.306Z,100885.10
2019-06-26T10:12:22.374Z,100886.84
2019-06-26T10:15:15.556Z,100882.13
2019-06-26T10:18:05.979Z,100878.55
2019-06-26T10:20:56.041Z,100875.25
2019-06-26T10:23:45.952Z,100871.84
2019-06-26T10:26:35.926Z,100877.93
2019-06-26T10:29:25.976Z,100879.19
2019-06-26T10:32:15.859Z,100877.42
2019-06-26T10:35:06.378Z,100879.48
2019-06-26T10:37:55.779Z,100875.34
2019-06-26T10:40:44.931Z,100875.62
2019-06-26T10:43:35.224Z,100862.58
2019-06-26T10:46:25.768Z,100872.27
2019-06-26T10:49:26.434Z,100867.42
2019-06-26T10:52:07.863Z,100860.77
2019-06-26T10:54:57.772Z,100866.21
2019-06-26T10:57:47.249Z,100861.98
2019-06-26T11:00:37.244Z,100854.58
2019-06-26T11:03:27.407Z,100857.09
2019-06-26T11:06:17.004Z,100853.36
2019-06-26T11:09:08.815Z,100845.17
2019-06-26T11:11:58.967Z,100851.41
2019-06-26T11:14:49.454Z,100841.52
2019-06-26T11:17:39.584Z,100843.67
2019-06-26T11:20:29.951Z,100842.34
2019-06-26T11:23:19.483Z,100835.37
2019-06-26T11:26:09.537Z,100836.47
2019-06-26T11:28:59.751Z,100830.77
2019-06-26T11:31:49.528Z,100829.77
2019-06-26T11:34:39.313Z,100836.06
2019-06-26T11:37:30.238Z,100829.22
2019-06-26T11:40:20.765Z,100835.64
2019-06-26T11:43:10.239Z,100820.47
2019-06-26T11:46:00.103Z,100819.59
2019-06-26T11:48:49.868Z,100823.55
2019-06-26T11:51:39.969Z,100819.52
2019-06-26T11:54:29.916Z,100811.95
2019-06-26T11:57:19.571Z,100818.58
2019-06-26T12:00:11.890Z,100816.77
2019-06-26T12:03:01.793Z,100810.47
2019-06-26T12:05:52.057Z,100817.73
2019-06-26T12:08:42.073Z,100817.34
2019-06-26T12:11:32.025Z,100807.38
2019-06-26T12:14:21.746Z,100804.62
2019-06-26T12:17:11.764Z,100803.44
2019-06-26T12:20:17.009Z,100801.83
2019-06-26T12:22:54.218Z,100799.63
2019-06-26T12:25:44.606Z,100799.94
2019-06-26T12:28:34.522Z,100791.88
2019-06-26T12:31:24.964Z,100792.44
2019-06-26T12:34:14.847Z,100792.64
2019-06-26T12:37:04.811Z,100793.63
2019-06-26T12:39:54.775Z,100785.48
2019-06-26T12:42:44.673Z,100787.98
2019-06-26T12:45:34.720Z,100789.05
2019-06-26T12:48:24.421Z,100784.76
2019-06-26T12:51:14.740Z,100786.09
2019-06-26T12:54:05.528Z,100795.72
2019-06-26T12:56:55.735Z,100786.97
2019-06-26T12:59:56.530Z,100789.08
2019-06-26T13:02:36.410Z,100788.28
2019-06-26T13:05:26.010Z,100780.45
2019-06-26T13:08:15.703Z,100780.36
2019-06-26T13:11:05.747Z,100783.28
2019-06-26T13:14:02.543Z,100781.73
2019-06-26T13:16:47.233Z,100769.89
2019-06-26T13:19:37.116Z,100773.20
2019-06-26T13:22:26.898Z,100769.23
2019-06-26T13:25:16.894Z,100771.48
2019-06-26T13:28:06.296Z,100768.02
2019-06-26T13:30:55.621Z,100763.94
2019-06-26T13:33:45.351Z,100762.40
2019-06-26T13:36:35.327Z,100758.73
2019-06-26T13:39:25.514Z,100759.04
2019-06-26T13:42:15.485Z,100758.95
2019-06-26T13:45:05.877Z,100757.09
2019-06-26T13:47:55.866Z,100757.61
2019-06-26T13:50:45.951Z,100755.16
2019-06-26T13:53:35.792Z,100758.72
2019-06-26T13:56:25.577Z,100756.55
2019-06-26T13:59:15.420Z,100749.14
2019-06-26T14:02:05.638Z,100751.16
2019-06-26T14:04:55.404Z,100744.03
2019-06-26T14:07:46.312Z,100747.24
2019-06-26T14:10:36.231Z,100739.41
2019-06-26T14:13:25.735Z,100733.67
2019-06-26T14:16:15.461Z,100743.88
2019-06-26T14:19:05.347Z,100734.94
2019-06-26T14:21:54.856Z,100737.52
2019-06-26T14:24:44.412Z,100735.92
2019-06-26T14:27:34.321Z,100735.83
2019-06-26T14:30:27.850Z,100737.03
2019-06-26T14:33:16.290Z,100735.47
2019-06-26T14:36:07.402Z,100732.13
2019-06-26T14:38:57.388Z,100734.50
2019-06-26T14:41:47.406Z,100738.65
2019-06-26T14:44:37.164Z,100739.38
2019-06-26T14:47:27.146Z,100728.05
2019-06-26T14:50:35.688Z,100732.76
2019-06-26T14:53:25.613Z,100725.44
2019-06-26T14:56:15.809Z,100727.03
2019-06-26T14:59:05.803Z,100727.30
2019-06-26T15:01:55.977Z,100720.55
2019-06-26T15:04:46.270Z,100723.72
2019-06-26T15:07:36.151Z,100715.17
2019-06-26T15:10:27.404Z,100712.52
2019-06-26T15:13:18.979Z,100707.77
2019-06-26T15:16:09.164Z,100700.64
2019-06-26T15:18:59.104Z,100701.44
2019-06-26T15:21:58.250Z,100713.73
2019-06-26T15:24:41.453Z,100709.53
2019-06-26T15:27:31.328Z,100705.26
2019-06-26T15:30:21.998Z,100704.11
2019-06-26T15:33:12.025Z,100699.58
2019-06-26T15:36:02.214Z,100690.75
2019-06-26T15:38:52.229Z,100685.11
2019-06-26T15:41:43.920Z,100687.48
2019-06-26T15:44:33.431Z,100685.63
2019-06-26T15:47:23.494Z,100686.55
2019-06-26T15:50:13.620Z,100680.69
2019-06-26T15:53:03.342Z,100676.36
2019-06-26T15:55:52.924Z,100674.44
2019-06-26T15:58:42.859Z,100672.90
2019-06-26T16:01:33.863Z,100681.94
2019-06-26T16:04:23.560Z,100678.30
2019-06-26T16:07:13.014Z,100693.84
2019-06-26T16:10:02.637Z,100687.03
2019-06-26T16:12:52.333Z,100686.29
2019-06-26T16:15:42.523Z,100688.20
2019-06-26T16:18:37.514Z,100688.31
2019-06-26T16:21:27.035Z,100683.12
2019-06-26T16:24:17.350Z,100679.98
2019-06-26T16:27:07.513Z,100682.32
2019-06-26T16:29:57.501Z,100685.97
2019-06-26T16:32:47.777Z,100693.91
2019-06-26T16:35:37.920Z,100692.59
2019-06-26T16:38:27.487Z,100696.65
2019-06-26T16:41:17.000Z,100698.03
2019-06-26T16:44:09.950Z,100698.56
2019-06-26T16:46:59.921Z,100704.41
2019-06-26T16:49:50.750Z,100704.32
2019-06-26T16:52:49.277Z,100692.55
2019-06-26T16:55:33.410Z,100699.53
2019-06-26T16:58:23.619Z,100701.68
2019-06-26T17:01:13.706Z,100699.17
2019-06-26T17:04:04.003Z,100705.19
2019-06-26T17:06:54.477Z,100696.56
2019-06-26T17:09:44.521Z,100697.22
2019-06-26T17:12:36.176Z,100700.54
2019-06-26T17:15:25.893Z,100709.91
2019-06-26T17:18:15.983Z,100717.09
2019-06-26T17:21:05.696Z,100716.97
2019-06-26T17:23:55.786Z,100716.42
2019-06-26T17:26:45.988Z,100721.20
2019-06-26T17:29:35.508Z,100720.62
2019-06-26T17:32:25.954Z,100721.47
2019-06-26T17:35:15.786Z,100726.59
2019-06-26T17:38:05.997Z,100733.28
2019-06-26T17:40:59.366Z,100735.89
2019-06-26T17:43:47.410Z,100736.11
2019-06-26T17:46:38.176Z,100733.70
2019-06-26T17:49:27.917Z,100736.95
2019-06-26T17:52:18.152Z,100732.88
2019-06-26T17:55:11.897Z,100736.31
2019-06-26T17:58:02.049Z,100734.70
2019-06-26T18:00:52.092Z,100743.56
2019-06-26T18:03:42.800Z,100748.98
2019-06-26T18:06:33.115Z,100744.72
2019-06-26T18:09:23.361Z,100741.67
2019-06-26T18:12:12.942Z,100750.30
2019-06-26T18:15:02.199Z,100744.42
2019-06-26T18:17:51.971Z,100750.19
2019-06-26T18:20:42.071Z,100748.94
2019-06-26T18:23:37.704Z,100750.28
2019-06-26T18:26:24.776Z,100750.83
2019-06-26T18:29:14.878Z,100756.58
2019-06-26T18:32:13.334Z,100762.97
2019-06-26T18:35:03.455Z,100760.47
2019-06-26T18:37:55.831Z,100756.38
2019-06-26T18:40:46.305Z,100765.36
2019-06-26T18:43:36.415Z,100775.33
2019-06-26T18:46:39.991Z,100776.03
2019-06-26T18:49:29.814Z,100790.45
2019-06-26T18:52:20.328Z,100789.53
2019-06-26T18:55:53.947Z,100796.27
2019-06-26T18:58:46.025Z,100794.92
2019-06-26T19:01:35.551Z,100798.39
2019-06-26T19:04:26.138Z,100806.75
2019-06-26T19:07:16.547Z,100797.38
2019-06-26T19:10:08.417Z,100803.02
2019-06-26T19:12:58.453Z,100807.96
2019-06-26T19:15:48.172Z,100805.65
2019-06-26T19:18:37.685Z,100812.02
2019-06-26T19:21:27.655Z,100804.31
2019-06-26T19:24:17.480Z,100809.98
2019-06-26T19:27:07.775Z,100810.63
2019-06-26T19:29:58.001Z,100819.77
2019-06-26T19:32:47.942Z,100819.27
2019-06-26T19:35:37.652Z,100824.63
2019-06-26T19:38:27.188Z,100825.09
2019-06-26T19:41:16.707Z,100831.02
2019-06-26T19:44:08.794Z,100827.91
2019-06-26T19:46:57.567Z,100833.39
2019-06-26T19:49:47.640Z,100843.72
2019-06-26T19:52:37.940Z,100848.02
2019-06-26T19:55:27.771Z,100846.71
2019-06-26T19:58:20.505Z,100850.36
2019-06-26T20:01:08.419Z,100857.47
2019-06-26T20:03:58.599Z,100867.89
2019-06-26T20:06:48.422Z,100862.53
2019-06-26T20:09:39.912Z,100870.53
2019-06-26T20:12:29.566Z,100872.41
2019-06-26T20:15:20.019Z,100874.16
2019-06-26T20:18:28.011Z,100876.02
2019-06-26T20:21:20.370Z,100876.02
2019-06-26T20:24:10.447Z,100884.00
2019-06-26T20:27:00.365Z,100893.06
2019-06-26T20:29:50.090Z,100894.14
2019-06-26T20:32:40.006Z,100893.47
2019-06-26T20:35:31.911Z,100892.93
2019-06-26T20:38:22.323Z,100894.09
2019-06-26T20:41:11.814Z,100894.02
2019-06-26T20:44:01.581Z,100898.63
2019-06-26T20:46:51.683Z,100905.36
2019-06-26T20:49:52.727Z,100910.20
2019-06-26T20:52:32.773Z,100908.80
2019-06-26T20:55:22.899Z,100918.70
2019-06-26T20:58:12.715Z,100927.14
2019-06-26T21:01:02.924Z,100925.09
2019-06-26T21:03:52.935Z,100924.00
2019-06-26T21:06:43.060Z,100931.02
2019-06-26T21:09:32.912Z,100936.30
2019-06-26T21:12:22.221Z,100940.41
2019-06-26T21:15:27.487Z,100936.70
2019-06-26T21:18:17.536Z,100941.61
2019-06-26T21:21:07.297Z,100947.23
2019-06-26T21:23:57.200Z,100951.89
2019-06-26T21:26:47.495Z,100955.86
2019-06-26T21:29:38.814Z,100952.47
2019-06-26T21:32:28.755Z,100957.14
2019-06-26T21:35:20.443Z,100966.56
2019-06-26T21:38:09.978Z,100966.55
2019-06-26T21:40:59.751Z,100971.80
2019-06-26T21:43:49.961Z,100968.66
2019-06-26T21:46:39.980Z,100981.19
2019-06-26T21:49:29.400Z,100979.69
2019-06-26T21:52:19.396Z,100980.67
2019-06-26T21:55:09.787Z,100986.25
2019-06-26T21:58:18.098Z,100993.44
2019-06-26T22:01:26.104Z,100993.19
2019-06-26T22:04:34.103Z,100992.00
2019-06-26T22:07:28.134Z,101002.68
2019-06-26T22:10:38.162Z,101004.20
2019-06-26T22:13:28.601Z,101007.55
2019-06-26T22:16:18.996Z,101008.56
2019-06-26T22:19:08.839Z,101015.00
2019-06-26T22:21:58.996Z,101012.39
2019-06-26T22:24:49.014Z,101009.14
2019-06-26T22:27:39.015Z,101013.29
2019-06-26T22:30:29.342Z,101012.69
2019-06-26T22:33:19.297Z,101022.89
2019-06-26T22:36:09.038Z,101017.41
2019-06-26T22:38:59.060Z,101021.05
2019-06-26T22:41:48.897Z,101023.56
2019-06-26T22:44:39.059Z,101029.09
2019-06-26T22:47:29.065Z,101031.59
2019-06-26T22:50:19.047Z,101035.48
2019-06-26T22:53:09.622Z,101034.49
2019-06-26T22:56:07.740Z,101036.89
2019-06-26T22:58:51.544Z,101034.16
2019-06-26T23:01:40.904Z,101044.64
2019-06-26T23:04:31.101Z,101037.70
2019-06-26T23:07:21.130Z,101049.30
2019-06-26T23:10:11.674Z,101050.08
2019-06-26T23:13:02.006Z,101049.37
2019-06-26T23:15:52.732Z,101048.48
2019-06-26T23:18:42.710Z,101055.66
2019-06-26T23:21:32.655Z,101065.32
2019-06-26T23:24:22.650Z,101061.31
2019-06-26T23:27:12.617Z,101062.22
2019-06-26T23:30:02.727Z,101067.03
2019-06-26T23:32:52.293Z,101063.28
2019-06-26T23:35:42.496Z,101074.00
2019-06-26T23:38:32.812Z,101077.02
2019-06-26T23:41:22.798Z,101075.62
2019-06-26T23:44:12.312Z,101074.95
2019-06-26T23:47:01.918Z,101073.49
2019-06-26T23:49:51.978Z,101082.20
2019-06-26T23:52:41.981Z,101089.23
2019-06-26T23:55:32.706Z,101085.28
2019-06-26T23:58:22.557Z,101088.80
